Time;durP1;ratioP1;P1;durP2;ratioP2;P2;SDS_P1;SDS_P2;PMS_P1;PMS_P2;Temp;Humidity;BMP_temperature;BMP_pressure;BME280_temperature;BME280_humidity;BME280_pressure;Samples;Min_cycle;Max_cycle;Signal;HPM_P1;HPM_P2
2021/10/17 00:00:17;;;;;;;20.77;9.38;;;;;;;5.16;100.00;100597.47;5017462;28;20050;-70
2021/10/17 00:02:46;;;;;;;24.07;8.97;;;;;;;5.14;100.00;100601.94;5016514;28;20428;-70
2021/10/17 00:05:14;;;;;;;20.58;7.50;;;;;;;5.15;100.00;100603.69;5015202;28;20144;-70
2021/10/17 00:07:42;;;;;;;17.73;8.10;;;;;;;5.10;100.00;100602.94;5003616;28;20099;-72
2021/10/17 00:10:13;;;;;;;17.27;7.07;;;;;;;5.01;100.00;100590.88;5015823;28;20052;-70
2021/10/17 00:12:41;;;;;;;14.40;6.72;;;;;;;5.03;100.00;100604.94;5017147;28;20053;-72
2021/10/17 00:15:11;;;;;;;11.50;5.95;;;;;;;5.01;100.00;100604.13;5017161;28;20045;-72
2021/10/17 00:17:39;;;;;;;12.30;6.60;;;;;;;4.97;100.00;100600.66;5000199;28;20297;-69
2021/10/17 00:20:09;;;;;;;16.75;7.18;;;;;;;5.02;100.00;100592.63;5015988;28;20052;-69
2021/10/17 00:22:37;;;;;;;14.07;5.55;;;;;;;5.07;100.00;100589.81;5017393;28;20125;-70
2021/10/17 00:25:06;;;;;;;20.45;5.20;;;;;;;5.07;100.00;100590.66;5027196;28;20045;-69
2021/10/17 00:27:33;;;;;;;13.02;5.43;;;;;;;4.98;100.00;100590.97;5036801;28;20049;-70
2021/10/17 00:30:00;;;;;;;19.27;5.45;;;;;;;4.98;100.00;100591.84;5036664;28;20076;-70
2021/10/17 00:32:27;;;;;;;13.63;4.85;;;;;;;4.99;100.00;100587.41;5035462;28;20076;-70
2021/10/17 00:34:54;;;;;;;18.80;4.90;;;;;;;5.00;100.00;100584.72;5035518;28;20045;-70
2021/10/17 00:37:21;;;;;;;13.00;4.85;;;;;;;5.03;100.00;100583.75;5036771;28;20132;-71
2021/10/17 00:39:47;;;;;;;12.02;4.80;;;;;;;5.05;100.00;100592.50;5036569;28;20049;-69
2021/10/17 00:42:16;;;;;;;14.27;4.80;;;;;;;5.02;100.00;100588.16;5035270;28;20065;-69
2021/10/17 00:44:44;;;;;;;18.15;5.20;;;;;;;5.00;100.00;100587.38;5019616;28;20103;-71
2021/10/17 00:47:10;;;;;;;13.90;4.90;;;;;;;5.00;100.00;100589.13;4999234;28;20042;-72
2021/10/17 00:49:37;;;;;;;11.63;4.68;;;;;;;4.97;100.00;100589.25;5016576;28;20050;-71
2021/10/17 00:52:04;;;;;;;13.98;4.00;;;;;;;4.93;100.00;100588.47;5016648;28;20164;-71
2021/10/17 00:54:31;;;;;;;15.65;4.95;;;;;;;4.94;100.00;100584.03;5016545;28;20042;-71
2021/10/17 00:56:58;;;;;;;10.35;4.22;;;;;;;4.92;100.00;100583.22;5015234;28;20108;-71
2021/10/17 00:59:24;;;;;;;16.55;5.40;;;;;;;4.84;100.00;100584.31;5015306;28;20050;-70
2021/10/17 01:01:51;;;;;;;15.68;4.88;;;;;;;4.92;100.00;100583.22;5016539;28;20363;-69
2021/10/17 01:04:18;;;;;;;11.10;4.20;;;;;;;4.91;100.00;100586.78;5015612;28;20308;-71
2021/10/17 01:06:45;;;;;;;16.77;5.40;;;;;;;4.89;100.00;100585.06;5015079;28;20057;-70
2021/10/17 01:09:12;;;;;;;17.45;5.25;;;;;;;4.86;100.00;100582.47;5015191;28;20067;-69
2021/10/17 01:11:46;;;;;;;19.35;5.07;;;;;;;4.84;100.00;100583.44;5015456;28;20439;-73
2021/10/17 01:14:22;;;;;;;13.80;5.63;;;;;;;4.87;100.00;100584.25;5015071;28;20054;-71
2021/10/17 01:16:50;;;;;;;11.65;5.60;;;;;;;4.83;100.00;100576.41;5014929;28;20050;-73
2021/10/17 01:19:19;;;;;;;11.27;4.65;;;;;;;4.78;100.00;100573.94;5014889;28;20046;-69
2021/10/17 01:21:50;;;;;;;12.63;4.70;;;;;;;4.69;100.00;100569.78;5015943;28;20058;-72
2021/10/17 01:24:17;;;;;;;9.85;4.93;;;;;;;4.70;100.00;100560.97;5020218;28;20050;-70
2021/10/17 01:26:46;;;;;;;13.80;4.85;;;;;;;4.70;100.00;100579.47;5036070;28;20054;-70
2021/10/17 01:29:14;;;;;;;12.90;4.97;;;;;;;4.70;100.00;100565.38;5037503;28;20056;-71
2021/10/17 01:31:41;;;;;;;11.13;4.40;;;;;;;4.69;100.00;100571.56;5035872;28;20049;-72
2021/10/17 01:34:09;;;;;;;15.10;4.82;;;;;;;4.67;100.00;100568.09;5034547;28;20042;-71
2021/10/17 01:36:38;;;;;;;9.82;5.20;;;;;;;4.62;100.00;100571.75;5034165;28;20049;-71
2021/10/17 01:39:06;;;;;;;12.20;4.68;;;;;;;4.59;100.00;100563.03;5018059;28;20049;-71
2021/10/17 01:41:34;;;;;;;17.67;4.72;;;;;;;4.61;100.00;100563.84;5034337;28;20724;-69
2021/10/17 01:44:09;;;;;;;14.10;4.72;;;;;;;4.64;100.00;100561.13;5024426;28;20042;-71
2021/10/17 01:46:37;;;;;;;16.75;4.97;;;;;;;4.64;100.00;100554.97;5014555;28;20402;-70
2021/10/17 01:49:05;;;;;;;16.70;4.97;;;;;;;4.64;100.00;100554.97;5015788;28;20064;-71
2021/10/17 01:51:39;;;;;;;13.07;5.20;;;;;;;4.68;100.00;100546.03;5014493;28;20140;-73
2021/10/17 01:54:06;;;;;;;13.68;5.63;;;;;;;4.76;100.00;100544.88;4998192;28;20056;-72
2021/10/17 01:56:34;;;;;;;15.68;5.70;;;;;;;4.85;100.00;100548.16;4997831;28;20092;-71
2021/10/17 01:59:02;;;;;;;13.48;5.47;;;;;;;5.02;100.00;100548.50;5014534;28;20056;-72
2021/10/17 02:01:38;;;;;;;22.95;6.05;;;;;;;5.09;100.00;100546.53;4999157;28;20137;-72
2021/10/17 02:04:05;;;;;;;16.17;6.03;;;;;;;5.15;100.00;100541.03;4998115;28;20096;-71
2021/10/17 02:06:33;;;;;;;16.70;4.95;;;;;;;5.25;100.00;100546.91;5014164;28;20046;-71
2021/10/17 02:09:02;;;;;;;16.10;5.13;;;;;;;5.32;100.00;100539.63;5015428;28;20144;-73
2021/10/17 02:11:31;;;;;;;18.13;5.10;;;;;;;5.34;100.00;100544.88;5014336;28;20422;-69
2021/10/17 02:13:59;;;;;;;17.98;5.75;;;;;;;5.39;100.00;100548.22;5014716;28;20061;-69
2021/10/17 02:16:26;;;;;;;23.33;5.35;;;;;;;5.39;100.00;100537.66;5020781;28;20513;-71
2021/10/17 02:18:53;;;;;;;16.25;4.97;;;;;;;5.41;100.00;100535.81;5020797;28;20325;-71
2021/10/17 02:21:20;;;;;;;13.07;4.55;;;;;;;5.43;100.00;100540.13;5021763;28;20053;-71
2021/10/17 02:23:48;;;;;;;10.27;4.75;;;;;;;5.44;100.00;100527.75;5020678;28;20049;-72
2021/10/17 02:26:15;;;;;;;13.05;5.32;;;;;;;5.47;100.00;100538.25;5017202;28;20321;-71
2021/10/17 02:29:09;;;;;;;10.98;4.55;;;;;;;5.48;100.00;100534.69;5017280;28;20340;-70
2021/10/17 02:31:48;;;;;;;15.48;5.10;;;;;;;5.45;100.00;100532.13;5000672;28;20394;-71
2021/10/17 02:34:17;;;;;;;12.05;4.60;;;;;;;5.39;100.00;100532.34;5020804;28;20058;-71
2021/10/17 02:36:44;;;;;;;20.98;5.13;;;;;;;5.28;100.00;100535.31;5020668;28;20137;-70
2021/10/17 02:39:11;;;;;;;14.32;5.10;;;;;;;5.17;100.00;100540.97;5020569;28;20053;-72
2021/10/17 02:41:39;;;;;;;10.63;5.07;;;;;;;5.07;100.00;100529.81;5020557;28;20133;-72
2021/10/17 02:44:06;;;;;;;11.10;4.80;;;;;;;4.96;100.00;100539.91;5020192;28;20103;-70
2021/10/17 02:46:39;;;;;;;10.48;4.30;;;;;;;4.84;100.00;100526.13;5021377;28;20046;-72
2021/10/17 02:49:06;;;;;;;16.80;5.47;;;;;;;4.80;100.00;100529.78;5020184;28;20053;-72
2021/10/17 02:51:33;;;;;;;11.75;4.95;;;;;;;4.75;100.00;100535.22;5020519;28;20045;-72
2021/10/17 02:54:00;;;;;;;10.63;4.25;;;;;;;4.70;100.00;100538.91;5020247;28;20054;-71
2021/10/17 02:56:27;;;;;;;15.10;4.72;;;;;;;4.67;100.00;100539.00;5020422;28;20050;-72
2021/10/17 02:58:54;;;;;;;13.05;5.18;;;;;;;4.56;100.00;100527.00;5020311;28;20061;-70
2021/10/17 03:01:21;;;;;;;14.27;4.93;;;;;;;4.45;100.00;100532.59;5020295;28;20050;-70
2021/10/17 03:03:49;;;;;;;12.63;4.93;;;;;;;4.54;100.00;100536.75;5004047;28;20056;-70
2021/10/17 03:06:16;;;;;;;10.88;4.63;;;;;;;4.43;100.00;100533.53;5019932;28;20049;-71
2021/10/17 03:08:43;;;;;;;12.32;5.15;;;;;;;4.49;100.00;100531.56;5004001;28;20045;-70
2021/10/17 03:11:11;;;;;;;10.90;4.60;;;;;;;4.46;100.00;100531.69;5020143;28;20042;-71
2021/10/17 03:13:43;;;;;;;10.80;5.03;;;;;;;4.38;100.00;100535.44;5004776;28;20088;-72
2021/10/17 03:16:20;;;;;;;11.45;4.30;;;;;;;4.35;100.00;100539.03;5021677;28;20049;-70
2021/10/17 03:18:47;;;;;;;13.63;4.45;;;;;;;4.34;100.00;100545.25;5003891;28;20120;-69
2021/10/17 03:21:17;;;;;;;12.05;3.92;;;;;;;4.21;100.00;100532.38;5020119;28;20060;-71
2021/10/17 03:23:44;;;;;;;12.18;4.32;;;;;;;4.23;100.00;100540.28;5003904;28;20137;-71
2021/10/17 03:26:11;;;;;;;12.02;3.78;;;;;;;4.29;100.00;100539.22;5019499;28;20069;-72
2021/10/17 03:28:42;;;;;;;8.23;3.60;;;;;;;4.24;100.00;100531.44;5018230;28;20048;-70
2021/10/17 03:31:09;;;;;;;10.15;3.70;;;;;;;4.27;100.00;100527.84;5017020;28;20100;-71
2021/10/17 03:33:36;;;;;;;9.13;3.42;;;;;;;4.26;100.00;100528.75;5016920;28;20042;-71
2021/10/17 03:36:08;;;;;;;9.25;3.20;;;;;;;4.23;100.00;100527.06;5000686;28;20471;-72
2021/10/17 03:38:38;;;;;;;13.80;3.95;;;;;;;4.21;100.00;100523.59;5012200;28;20050;-70
2021/10/17 03:41:05;;;;;;;7.90;4.32;;;;;;;4.26;100.00;100526.13;5028254;28;20053;-71
2021/10/17 03:43:40;;;;;;;9.43;3.35;;;;;;;4.19;100.00;100523.66;5029587;28;20055;-71
2021/10/17 03:46:07;;;;;;;9.95;3.63;;;;;;;4.15;100.00;100519.34;5029065;28;20042;-71
2021/10/17 03:48:34;;;;;;;8.05;3.33;;;;;;;4.16;100.00;100523.75;5036289;28;20049;-72
2021/10/17 03:51:10;;;;;;;12.20;3.75;;;;;;;4.13;100.00;100518.53;5036548;28;20049;-71
2021/10/17 03:53:37;;;;;;;7.03;3.67;;;;;;;4.15;100.00;100515.84;5008711;28;20088;-70
2021/10/17 03:56:04;;;;;;;12.60;3.95;;;;;;;4.12;100.00;100521.22;5017564;28;20333;-72
2021/10/17 03:58:31;;;;;;;7.25;3.25;;;;;;;4.08;100.00;100505.47;5018542;28;20077;-70
2021/10/17 04:00:59;;;;;;;7.65;3.58;;;;;;;4.07;100.00;100514.31;5018568;28;20438;-70
2021/10/17 04:03:27;;;;;;;12.05;3.80;;;;;;;4.04;100.00;100522.28;5017932;28;20414;-70
2021/10/17 04:05:55;;;;;;;6.70;3.90;;;;;;;4.05;100.00;100525.81;5016258;28;20058;-72
2021/10/17 04:08:22;;;;;;;10.00;3.95;;;;;;;3.96;100.00;100510.22;5016347;28;20393;-70
2021/10/17 04:10:50;;;;;;;11.43;3.92;;;;;;;4.00;100.00;100528.59;5012479;28;20073;-71
2021/10/17 04:13:18;;;;;;;10.27;5.10;;;;;;;3.93;100.00;100522.59;5035908;28;20394;-71
2021/10/17 04:15:45;;;;;;;9.88;4.03;;;;;;;3.96;100.00;100520.81;5003313;28;20509;-71
2021/10/17 04:18:12;;;;;;;11.68;4.30;;;;;;;3.93;100.00;100525.25;5036003;28;20352;-71
2021/10/17 04:20:40;;;;;;;13.48;4.63;;;;;;;3.93;100.00;100516.47;5036914;28;20160;-72
2021/10/17 04:23:07;;;;;;;12.73;4.40;;;;;;;3.93;100.00;100532.31;5052518;28;20065;-72
2021/10/17 04:25:35;;;;;;;12.77;5.00;;;;;;;3.95;100.00;100525.19;5005276;28;20053;-70
2021/10/17 04:28:03;;;;;;;7.18;5.22;;;;;;;3.86;100.00;100526.31;5015886;28;20038;-71
2021/10/17 04:30:31;;;;;;;9.98;4.70;;;;;;;3.88;100.00;100529.78;5015707;28;20136;-71
2021/10/17 04:32:57;;;;;;;12.65;6.05;;;;;;;3.88;100.00;100529.78;5015804;28;20053;-71
2021/10/17 04:35:24;;;;;;;9.52;5.53;;;;;;;3.87;100.00;100533.31;5015735;28;20052;-68
2021/10/17 04:37:51;;;;;;;12.38;5.30;;;;;;;3.81;100.00;100533.47;5014630;28;20050;-70
2021/10/17 04:40:21;;;;;;;9.68;4.78;;;;;;;3.81;100.00;100530.84;5016457;28;20129;-72
2021/10/17 04:42:49;;;;;;;10.82;5.03;;;;;;;3.81;100.00;100528.19;5016823;28;20049;-72
2021/10/17 04:45:16;;;;;;;13.35;6.25;;;;;;;3.80;100.00;100530.00;5048317;28;20065;-70
2021/10/17 04:47:44;;;;;;;15.65;5.28;;;;;;;3.79;100.00;100536.19;5035332;28;20061;-70
2021/10/17 04:50:11;;;;;;;13.27;5.63;;;;;;;3.73;100.00;100530.19;5035012;28;20045;-72
2021/10/17 04:52:38;;;;;;;12.00;5.68;;;;;;;3.66;100.00;100525.06;5035275;28;20049;-70
2021/10/17 04:55:08;;;;;;;11.77;5.93;;;;;;;3.72;100.00;100533.75;5036165;28;20048;-69
2021/10/17 04:57:37;;;;;;;14.18;6.50;;;;;;;3.70;100.00;100530.28;5034964;28;20050;-72
2021/10/17 05:00:05;;;;;;;20.80;6.72;;;;;;;3.77;100.00;100527.41;5036139;28;20049;-72
2021/10/17 05:02:47;;;;;;;11.50;6.13;;;;;;;3.64;100.00;100521.63;5018452;28;20128;-71
2021/10/17 05:05:15;;;;;;;33.92;8.07;;;;;;;3.55;100.00;100513.94;5015147;28;20270;-70
2021/10/17 05:07:44;;;;;;;11.25;5.82;;;;;;;3.59;100.00;100528.78;5015214;28;20049;-68
2021/10/17 05:10:11;;;;;;;14.27;7.30;;;;;;;3.59;100.00;100539.34;5016098;28;20125;-70
2021/10/17 05:12:38;;;;;;;13.95;6.50;;;;;;;3.55;100.00;100544.75;5014962;28;20049;-71
2021/10/17 05:15:06;;;;;;;11.23;6.95;;;;;;;3.57;100.00;100537.63;4998830;28;20050;-71
2021/10/17 05:17:33;;;;;;;14.73;6.45;;;;;;;3.58;100.00;100532.34;5014989;28;20050;-70
2021/10/17 05:20:00;;;;;;;18.35;6.70;;;;;;;3.49;100.00;100525.50;5015004;28;20124;-70
2021/10/17 05:22:30;;;;;;;10.10;6.18;;;;;;;3.51;100.00;100526.38;5014873;28;20053;-70
2021/10/17 05:24:57;;;;;;;10.27;6.30;;;;;;;3.51;100.00;100526.38;5023028;28;20451;-71
2021/10/17 05:27:24;;;;;;;12.20;6.65;;;;;;;3.46;100.00;100528.25;5014566;28;20128;-69
2021/10/17 05:29:50;;;;;;;13.48;6.25;;;;;;;3.38;100.00;100528.44;5014762;28;20452;-70
2021/10/17 05:32:19;;;;;;;13.57;6.88;;;;;;;3.38;100.00;100532.84;5014751;28;20145;-69
2021/10/17 05:34:46;;;;;;;13.68;5.88;;;;;;;3.37;100.00;100523.19;4998586;28;20054;-71
2021/10/17 05:37:13;;;;;;;10.85;5.90;;;;;;;3.42;100.00;100528.38;5014390;28;20064;-71
2021/10/17 05:39:39;;;;;;;13.13;5.95;;;;;;;3.44;100.00;100535.34;5014618;28;20305;-70
2021/10/17 05:42:07;;;;;;;14.15;5.45;;;;;;;3.38;100.00;100527.56;5014534;28;20438;-72
2021/10/17 05:44:34;;;;;;;11.45;6.15;;;;;;;3.46;100.00;100522.97;5014498;28;20390;-72
2021/10/17 05:47:01;;;;;;;16.05;5.85;;;;;;;3.46;100.00;100527.38;5014107;28;20034;-72
2021/10/17 05:49:28;;;;;;;16.48;6.47;;;;;;;3.44;100.00;100535.34;4983909;28;20128;-69
2021/10/17 05:51:55;;;;;;;12.68;5.85;;;;;;;3.43;100.00;100532.72;4995990;28;20053;-71
2021/10/17 05:54:22;;;;;;;12.23;6.38;;;;;;;3.42;100.00;100538.91;4994837;28;20101;-71
2021/10/17 05:56:48;;;;;;;15.50;6.60;;;;;;;3.40;100.00;100534.53;4983168;28;20042;-75
2021/10/17 05:59:17;;;;;;;8.70;5.90;;;;;;;3.38;100.00;100540.78;5001683;28;20054;-69
2021/10/17 06:01:45;;;;;;;8.83;5.57;;;;;;;3.35;100.00;100539.06;5008500;28;20148;-69
2021/10/17 06:04:20;;;;;;;12.68;6.32;;;;;;;3.40;100.00;100539.81;5008258;28;20047;-67
2021/10/17 06:06:54;;;;;;;14.38;5.70;;;;;;;3.38;100.00;100544.25;5008384;28;20046;-68
2021/10/17 06:09:21;;;;;;;12.02;5.47;;;;;;;3.34;100.00;100542.63;5008659;28;20407;-76
2021/10/17 06:11:49;;;;;;;13.85;5.72;;;;;;;3.36;100.00;100553.13;5007267;28;20169;-76
2021/10/17 06:14:16;;;;;;;10.60;6.05;;;;;;;3.37;100.00;100550.44;5011373;28;20057;-72
2021/10/17 06:16:43;;;;;;;10.82;5.40;;;;;;;3.38;100.00;100556.59;5010023;28;20079;-73
2021/10/17 06:19:11;;;;;;;10.02;6.10;;;;;;;3.39;100.00;100558.34;5012222;28;20439;-71
2021/10/17 06:21:44;;;;;;;11.48;5.88;;;;;;;3.44;100.00;100566.13;5010695;28;20084;-70
2021/10/17 06:24:11;;;;;;;11.55;5.38;;;;;;;3.45;100.00;100567.84;5008426;28;20048;-71
2021/10/17 06:26:38;;;;;;;11.65;5.82;;;;;;;3.44;100.00;100566.13;4984267;28;20053;-73
2021/10/17 06:29:05;;;;;;;10.70;5.45;;;;;;;3.44;100.00;100572.28;5009790;28;20053;-74
2021/10/17 06:31:33;;;;;;;12.43;6.00;;;;;;;3.47;100.00;100587.16;4994459;28;20152;-71
2021/10/17 06:34:00;;;;;;;8.75;5.00;;;;;;;3.49;100.00;100585.38;5021702;28;20463;-71
2021/10/17 06:36:28;;;;;;;18.30;5.60;;;;;;;3.51;100.00;100587.06;5012403;28;20078;-70
2021/10/17 06:38:55;;;;;;;11.15;5.20;;;;;;;3.55;100.00;100592.25;5007899;28;20042;-68
2021/10/17 06:41:22;;;;;;;11.65;5.57;;;;;;;3.59;100.00;100578.09;5011279;28;20128;-72
2021/10/17 06:43:49;;;;;;;12.57;5.05;;;;;;;3.64;100.00;100579.69;5011140;28;20050;-74
2021/10/17 06:46:22;;;;;;;13.95;6.03;;;;;;;3.65;100.00;100586.69;5024961;28;20075;-72
2021/10/17 06:48:52;;;;;;;10.15;5.50;;;;;;;3.69;100.00;100574.28;5007323;28;20135;-75
2021/10/17 06:51:19;;;;;;;11.15;5.78;;;;;;;3.80;100.00;100592.50;4994325;28;20045;-75
2021/10/17 06:53:46;;;;;;;11.48;5.70;;;;;;;3.85;100.00;100590.59;5010874;28;20047;-74
2021/10/17 06:56:16;;;;;;;11.00;6.43;;;;;;;3.91;100.00;100590.44;5007612;28;20081;-76
2021/10/17 06:58:44;;;;;;;14.90;5.40;;;;;;;3.98;100.00;100583.22;5001572;28;20038;-76
2021/10/17 07:01:10;;;;;;;11.20;5.93;;;;;;;4.03;100.00;100585.75;5009203;28;20065;-73
2021/10/17 07:03:44;;;;;;;12.65;5.18;;;;;;;3.99;100.00;100562.97;5013758;28;20053;-76
2021/10/17 07:06:16;;;;;;;13.75;5.80;;;;;;;4.15;100.00;100577.47;5016066;28;20049;-75
2021/10/17 07:08:47;;;;;;;18.70;7.50;;;;;;;4.25;100.00;100579.88;5000950;28;20431;-74
2021/10/17 07:11:37;;;;;;;11.23;5.72;;;;;;;4.34;100.00;100585.75;5007521;28;20046;-73
2021/10/17 07:14:06;;;;;;;10.75;5.70;;;;;;;4.44;100.00;100589.00;5009241;28;20058;-76
2021/10/17 07:16:45;;;;;;;7.43;5.70;;;;;;;4.45;100.00;100579.28;5009274;28;20042;-74
2021/10/17 07:19:13;;;;;;;10.38;5.60;;;;;;;4.55;100.00;100585.19;5008914;28;20506;-74
2021/10/17 07:21:39;;;;;;;9.98;5.82;;;;;;;4.67;100.00;100590.13;5007096;28;20045;-75
2021/10/17 07:24:07;;;;;;;10.43;5.35;;;;;;;4.67;100.00;100578.66;5007175;28;20042;-74
2021/10/17 07:26:39;;;;;;;21.48;5.88;;;;;;;4.82;100.00;100586.16;5003214;28;20169;-77
2021/10/17 07:29:07;;;;;;;13.32;5.32;;;;;;;4.87;100.00;100583.38;4986449;28;20045;-77
2021/10/17 07:31:36;;;;;;;11.98;5.60;;;;;;;4.96;100.00;100584.88;5002025;28;20050;-70
2021/10/17 07:34:06;;;;;;;10.07;4.75;;;;;;;5.14;100.00;100591.38;5008074;28;20136;-74
2021/10/17 07:36:35;;;;;;;11.05;5.30;;;;;;;5.26;100.00;100593.63;4989364;28;20041;-73
2021/10/17 07:39:10;;;;;;;14.35;4.53;;;;;;;5.32;100.00;100574.03;5012344;28;20101;-74
2021/10/17 07:41:47;;;;;;;11.18;4.18;;;;;;;5.51;100.00;100590.16;4999568;28;20447;-71
2021/10/17 07:44:16;;;;;;;9.98;4.32;;;;;;;5.59;100.00;100576.69;5014155;28;20039;-72
2021/10/17 07:47:07;;;;;;;10.05;4.20;;;;;;;5.83;98.39;100590.88;5014467;28;21137;-73
2021/10/17 07:49:40;;;;;;;16.60;4.43;;;;;;;5.96;97.33;100595.75;4997521;28;20064;-69
2021/10/17 07:52:14;;;;;;;11.00;3.90;;;;;;;6.03;97.63;100605.25;5010583;28;20042;-73
2021/10/17 07:54:41;;;;;;;15.02;3.60;;;;;;;6.03;98.29;100597.28;4997966;28;20069;-77
2021/10/17 07:57:11;;;;;;;8.27;3.55;;;;;;;6.10;97.96;100608.56;4990226;28;20518;-73
2021/10/17 07:59:39;;;;;;;11.95;4.00;;;;;;;6.18;97.42;100608.28;5011056;28;20054;-72
2021/10/17 08:02:10;;;;;;;9.68;4.18;;;;;;;6.31;95.97;100606.91;4998130;28;20466;-74
2021/10/17 08:04:40;;;;;;;6.55;3.67;;;;;;;6.42;95.86;100608.31;4995681;28;20498;-75
2021/10/17 08:07:24;;;;;;;10.80;3.60;;;;;;;6.63;92.78;100604.88;5010316;28;20046;-74
2021/10/17 08:09:50;;;;;;;10.10;3.70;;;;;;;6.81;91.84;100599.78;5009262;28;20054;-75
2021/10/17 08:12:18;;;;;;;15.18;3.50;;;;;;;6.86;91.56;100603.13;4992873;28;20340;-75
2021/10/17 08:14:45;;;;;;;11.15;3.55;;;;;;;6.98;91.30;100601.78;5002630;28;20156;-79
2021/10/17 08:17:14;;;;;;;14.40;3.75;;;;;;;7.03;91.26;100599.81;5011545;28;20054;-75
2021/10/17 08:20:04;;;;;;;11.07;3.35;;;;;;;7.14;91.24;100602.03;4995418;28;20058;-75
2021/10/17 08:22:32;;;;;;;7.40;3.38;;;;;;;7.14;91.00;100594.06;4992957;28;20049;-74
2021/10/17 08:25:05;;;;;;;11.70;3.67;;;;;;;7.32;90.66;100607.56;5014237;28;20132;-77
2021/10/17 08:27:33;;;;;;;10.70;3.63;;;;;;;7.39;91.06;100602.84;5013871;28;20317;-74
2021/10/17 08:30:03;;;;;;;8.68;3.45;;;;;;;7.59;89.19;100613.50;4999114;28;20049;-76
2021/10/17 08:32:32;;;;;;;14.10;3.47;;;;;;;7.64;88.75;100613.34;5015100;28;20045;-76
2021/10/17 08:35:02;;;;;;;7.73;3.00;;;;;;;7.75;88.26;100613.75;5008005;28;20058;-76
2021/10/17 08:37:30;;;;;;;9.57;3.30;;;;;;;7.82;89.59;100609.06;5007399;28;20060;-76
2021/10/17 08:40:11;;;;;;;12.27;3.65;;;;;;;7.89;89.00;100612.28;5015395;28;20817;-74
2021/10/17 08:42:57;;;;;;;11.20;3.00;;;;;;;8.04;87.63;100613.44;5012223;28;20064;-71
2021/10/17 08:45:36;;;;;;;12.23;3.30;;;;;;;8.19;86.68;100614.56;5012217;28;20431;-72
2021/10/17 08:48:07;;;;;;;4.90;3.08;;;;;;;8.21;87.01;100615.38;5023614;28;20145;-70
2021/10/17 08:50:41;;;;;;;7.88;3.30;;;;;;;8.27;86.56;100617.75;5009675;28;20042;-74
2021/10/17 08:53:08;;;;;;;9.52;3.92;;;;;;;8.35;85.83;100616.56;5009887;28;20050;-74
2021/10/17 08:55:45;;;;;;;11.63;4.15;;;;;;;8.50;84.15;100618.53;5007984;28;20048;-74
2021/10/17 08:58:27;;;;;;;10.43;4.22;;;;;;;8.58;85.26;100612.03;5014012;28;20042;-71
2021/10/17 09:00:54;;;;;;;12.07;4.63;;;;;;;8.64;84.40;100611.75;5012721;28;20046;-75
2021/10/17 09:03:37;;;;;;;8.20;4.57;;;;;;;8.81;83.19;100605.63;5008274;28;20045;-73
2021/10/17 09:06:16;;;;;;;10.98;4.78;;;;;;;8.81;83.77;100603.84;5012527;28;20062;-74
2021/10/17 09:08:46;;;;;;;12.90;4.65;;;;;;;8.89;83.84;100613.28;5013444;28;20100;-74
2021/10/17 09:11:34;;;;;;;9.52;4.65;;;;;;;9.06;83.08;100604.50;5015178;28;20457;-73
2021/10/17 09:14:22;;;;;;;7.60;3.78;;;;;;;9.21;82.94;100608.22;5015592;28;20061;-72
2021/10/17 09:16:51;;;;;;;10.50;3.97;;;;;;;9.26;83.44;100603.53;4999447;28;20049;-72
2021/10/17 09:19:26;;;;;;;9.43;3.90;;;;;;;9.36;83.42;100609.28;5014824;28;20042;-73
2021/10/17 09:22:02;;;;;;;11.23;4.20;;;;;;;9.38;84.04;100608.25;5009289;28;20107;-70
2021/10/17 09:24:42;;;;;;;8.65;4.80;;;;;;;9.47;83.12;100606.06;5020835;28;20068;-73
2021/10/17 09:27:23;;;;;;;13.50;5.18;;;;;;;9.54;83.99;100612.84;5035768;28;20037;-73
2021/10/17 09:29:54;;;;;;;14.63;6.80;;;;;;;9.62;84.49;100594.69;5034695;28;20056;-73
2021/10/17 09:32:27;;;;;;;14.70;7.82;;;;;;;9.71;83.66;100605.81;5034783;28;20041;-73
2021/10/17 09:35:03;;;;;;;11.13;6.60;;;;;;;9.85;82.61;100605.97;5035379;28;20465;-71
2021/10/17 09:38:08;;;;;;;17.67;7.88;;;;;;;9.96;83.56;100602.75;5034638;28;20045;-77
2021/10/17 09:40:46;;;;;;;16.27;7.30;;;;;;;10.13;82.23;100603.69;4980344;28;20054;-74
2021/10/17 09:43:32;;;;;;;15.45;7.45;;;;;;;10.34;80.47;100601.69;4995013;28;20355;-74
2021/10/17 09:46:18;;;;;;;17.65;7.85;;;;;;;10.51;78.03;100607.97;5013917;28;20050;-77
2021/10/17 09:48:46;;;;;;;11.45;6.70;;;;;;;10.62;77.47;100589.56;5007124;28;20040;-78
2021/10/17 09:51:34;;;;;;;13.23;6.30;;;;;;;10.78;77.77;100580.72;5001728;28;20030;-78
2021/10/17 09:54:00;;;;;;;10.90;5.68;;;;;;;10.93;75.40;100571.88;5004009;28;20046;-76
2021/10/17 09:56:36;;;;;;;12.95;4.97;;;;;;;11.09;74.05;100579.00;5020179;28;20050;-77
2021/10/17 09:59:08;;;;;;;9.18;5.00;;;;;;;11.17;73.69;100582.09;5018112;28;20087;-74
2021/10/17 10:01:37;;;;;;;7.63;3.92;;;;;;;11.33;72.51;100579.41;5023497;28;20049;-73
2021/10/17 10:04:07;;;;;;;6.32;3.45;;;;;;;11.45;70.74;100580.53;5015269;28;20050;-74
2021/10/17 10:06:34;;;;;;;7.38;2.47;;;;;;;11.47;69.46;100575.94;5015652;28;20088;-73
2021/10/17 10:09:05;;;;;;;7.28;2.90;;;;;;;11.54;69.89;100577.31;5015032;28;20050;-71
2021/10/17 10:11:33;;;;;;;5.45;2.53;;;;;;;11.62;67.94;100573.31;5012764;28;20038;-74
2021/10/17 10:14:02;;;;;;;7.22;3.20;;;;;;;11.63;70.30;100575.03;5015203;28;20085;-74
2021/10/17 10:16:31;;;;;;;5.20;2.70;;;;;;;11.64;72.34;100577.63;5015253;28;20463;-70
2021/10/17 10:19:07;;;;;;;9.07;4.00;;;;;;;11.70;71.83;100572.88;5015091;28;20034;-75
2021/10/17 10:21:35;;;;;;;9.20;3.10;;;;;;;11.76;72.61;100575.19;5014887;28;20466;-72
2021/10/17 10:24:08;;;;;;;8.30;3.47;;;;;;;11.94;67.65;100573.22;5016546;28;20061;-72
2021/10/17 10:26:37;;;;;;;6.03;2.80;;;;;;;12.01;66.86;100581.72;5024007;28;20045;-72
2021/10/17 10:29:10;;;;;;;4.38;2.58;;;;;;;12.04;67.83;100579.75;5015407;28;20080;-75
2021/10/17 10:31:40;;;;;;;7.43;2.60;;;;;;;12.13;68.10;100578.34;5015286;28;20046;-70
2021/10/17 10:34:08;;;;;;;8.25;2.95;;;;;;;12.18;66.22;100573.59;5013903;28;20451;-71
2021/10/17 10:36:54;;;;;;;5.88;2.75;;;;;;;12.25;67.49;100582.09;5011369;28;20038;-76
2021/10/17 10:39:32;;;;;;;5.68;2.88;;;;;;;12.42;65.00;100581.03;4996324;28;20050;-76
2021/10/17 10:42:13;;;;;;;11.95;2.92;;;;;;;12.46;64.90;100584.38;5013284;28;20134;-81
2021/10/17 10:44:40;;;;;;;8.25;2.88;;;;;;;12.44;63.12;100578.28;5016134;28;20051;-79
2021/10/17 10:47:25;;;;;;;5.78;2.13;;;;;;;12.49;62.15;100587.72;5014741;28;20038;-80
2021/10/17 10:49:56;;;;;;;4.15;2.30;;;;;;;12.53;62.00;100593.75;5022154;28;20080;-77
2021/10/17 10:52:23;;;;;;;5.80;2.33;;;;;;;12.57;61.52;100589.94;5019524;28;20053;-75
2021/10/17 10:55:10;;;;;;;10.77;2.30;;;;;;;12.51;63.27;100576.94;5013824;28;20038;-75
2021/10/17 10:57:47;;;;;;;4.13;2.33;;;;;;;12.59;63.29;100593.38;5018410;28;20042;-80
2021/10/17 11:00:16;;;;;;;2.92;1.80;;;;;;;12.75;61.64;100590.59;5018119;28;20037;-76
2021/10/17 11:03:14;;;;;;;7.40;1.90;;;;;;;12.84;59.66;100593.63;5006462;28;20050;-78
2021/10/17 11:06:04;;;;;;;4.93;2.00;;;;;;;12.99;59.00;100589.13;5019608;28;20041;-78
2021/10/17 11:08:32;;;;;;;4.60;2.00;;;;;;;12.93;59.54;100585.03;5015797;28;20188;-76
2021/10/17 11:10:59;;;;;;;5.63;1.80;;;;;;;12.97;60.04;100583.84;5026863;28;20037;-76
2021/10/17 11:13:33;;;;;;;5.82;2.30;;;;;;;13.08;61.57;100591.19;5025966;28;20054;-75
2021/10/17 11:16:03;;;;;;;5.07;2.65;;;;;;;13.19;59.25;100593.22;5017120;28;20046;-75
2021/10/17 11:18:32;;;;;;;3.38;2.30;;;;;;;13.24;60.45;100590.22;5016692;28;20097;-74
2021/10/17 11:21:00;;;;;;;9.48;2.60;;;;;;;13.33;59.90;100588.75;5010850;28;20038;-73
2021/10/17 11:23:31;;;;;;;5.65;2.70;;;;;;;13.45;61.42;100593.28;5011732;28;20128;-75
2021/10/17 11:25:59;;;;;;;;;;;;;;;13.53;60.42;100596.38;5012360;28;20092;-74
2021/10/17 11:28:28;;;;;;;5.15;2.30;;;;;;;13.55;58.76;100597.13;5016583;28;19967;-77
2021/10/17 11:31:14;;;;;;;7.43;2.53;;;;;;;13.62;57.47;100584.16;5015489;28;20042;-78
2021/10/17 11:33:45;;;;;;;2.92;2.20;;;;;;;13.61;57.19;100585.13;5016268;28;20351;-76
2021/10/17 11:36:13;;;;;;;;;;;;;;;13.65;56.14;100583.97;5036350;28;20053;-77